sensor_id;sensor_type;location;lat;lon;timestamp;P1;durP1;ratioP1;P2;durP2;ratioP2
47958;SDS011;33718;50.910;-1.514;2023-04-09T00:00:39;9.93;;;5.23;;
47958;SDS011;33718;50.910;-1.514;2023-04-09T00:02:40;10.15;;;5.57;;
47958;SDS011;33718;50.910;-1.514;2023-04-09T00:04:43;5.97;;;4.28;;
47958;SDS011;33718;50.910;-1.514;2023-04-09T00:06:44;6.05;;;4.60;;
47958;SDS011;33718;50.910;-1.514;2023-04-09T00:08:46;8.50;;;4.72;;
47958;SDS011;33718;50.910;-1.514;2023-04-09T00:12:51;9.50;;;5.85;;
47958;SDS011;33718;50.910;-1.514;2023-04-09T00:14:53;11.32;;;5.07;;
47958;SDS011;33718;50.910;-1.514;2023-04-09T00:16:55;6.38;;;4.78;;
47958;SDS011;33718;50.910;-1.514;2023-04-09T00:18:57;11.50;;;5.50;;
47958;SDS011;33718;50.910;-1.514;2023-04-09T00:21:01;7.25;;;4.70;;
47958;SDS011;33718;50.910;-1.514;2023-04-09T00:23:05;6.97;;;4.88;;
47958;SDS011;33718;50.910;-1.514;2023-04-09T00:25:10;5.25;;;4.22;;
47958;SDS011;33718;50.910;-1.514;2023-04-09T00:27:14;8.40;;;5.20;;
47958;SDS011;33718;50.910;-1.514;2023-04-09T00:29:16;13.15;;;5.68;;
47958;SDS011;33718;50.910;-1.514;2023-04-09T00:31:20;10.55;;;5.20;;
47958;SDS011;33718;50.910;-1.514;2023-04-09T00:33:22;9.40;;;5.60;;
47958;SDS011;33718;50.910;-1.514;2023-04-09T00:35:41;9.05;;;3.92;;
47958;SDS011;33718;50.910;-1.514;2023-04-09T00:37:43;6.25;;;4.70;;
47958;SDS011;33718;50.910;-1.514;2023-04-09T00:39:45;7.68;;;4.90;;
47958;SDS011;33718;50.910;-1.514;2023-04-09T00:41:47;10.25;;;5.55;;
47958;SDS011;33718;50.910;-1.514;2023-04-09T00:44:07;7.32;;;4.45;;
47958;SDS011;33718;50.910;-1.514;2023-04-09T00:48:31;6.15;;;4.40;;
47958;SDS011;33718;50.910;-1.514;2023-04-09T00:50:33;8.30;;;5.68;;
47958;SDS011;33718;50.910;-1.514;2023-04-09T00:52:35;7.78;;;5.18;;
47958;SDS011;33718;50.910;-1.514;2023-04-09T00:54:36;10.55;;;5.65;;
47958;SDS011;33718;50.910;-1.514;2023-04-09T00:56:38;8.52;;;5.53;;
47958;SDS011;33718;50.910;-1.514;2023-04-09T00:58:43;9.55;;;5.90;;
47958;SDS011;33718;50.910;-1.514;2023-04-09T01:00:44;8.10;;;5.05;;
47958;SDS011;33718;50.910;-1.514;2023-04-09T01:02:49;10.60;;;6.63;;
47958;SDS011;33718;50.910;-1.514;2023-04-09T01:04:53;10.00;;;6.55;;
47958;SDS011;33718;50.910;-1.514;2023-04-09T01:06:57;8.68;;;5.85;;
47958;SDS011;33718;50.910;-1.514;2023-04-09T01:13:29;12.40;;;6.15;;
47958;SDS011;33718;50.910;-1.514;2023-04-09T01:15:33;12.10;;;7.43;;
47958;SDS011;33718;50.910;-1.514;2023-04-09T01:22:31;11.48;;;6.60;;
47958;SDS011;33718;50.910;-1.514;2023-04-09T01:24:56;12.80;;;7.38;;
47958;SDS011;33718;50.910;-1.514;2023-04-09T01:27:01;9.55;;;6.07;;
47958;SDS011;33718;50.910;-1.514;2023-04-09T01:29:04;8.93;;;6.78;;
47958;SDS011;33718;50.910;-1.514;2023-04-09T01:31:16;12.57;;;8.82;;
47958;SDS011;33718;50.910;-1.514;2023-04-09T01:33:21;12.00;;;7.47;;
47958;SDS011;33718;50.910;-1.514;2023-04-09T01:35:23;16.40;;;7.90;;
47958;SDS011;33718;50.910;-1.514;2023-04-09T01:37:25;9.45;;;6.45;;
47958;SDS011;33718;50.910;-1.514;2023-04-09T01:39:29;11.27;;;6.95;;
47958;SDS011;33718;50.910;-1.514;2023-04-09T01:41:38;8.85;;;6.53;;
47958;SDS011;33718;50.910;-1.514;2023-04-09T01:43:44;9.95;;;5.93;;
47958;SDS011;33718;50.910;-1.514;2023-04-09T01:45:48;9.65;;;6.13;;
47958;SDS011;33718;50.910;-1.514;2023-04-09T01:49:57;12.07;;;6.55;;
47958;SDS011;33718;50.910;-1.514;2023-04-09T01:52:01;17.67;;;10.75;;
47958;SDS011;33718;50.910;-1.514;2023-04-09T01:54:11;11.85;;;8.23;;
47958;SDS011;33718;50.910;-1.514;2023-04-09T01:56:15;10.30;;;6.78;;
47958;SDS011;33718;50.910;-1.514;2023-04-09T01:58:20;10.30;;;6.15;;
47958;SDS011;33718;50.910;-1.514;2023-04-09T02:00:24;11.60;;;6.75;;
47958;SDS011;33718;50.910;-1.514;2023-04-09T02:02:34;7.43;;;5.72;;
47958;SDS011;33718;50.910;-1.514;2023-04-09T02:04:39;10.43;;;7.75;;
47958;SDS011;33718;50.910;-1.514;2023-04-09T02:06:49;8.73;;;6.38;;
47958;SDS011;33718;50.910;-1.514;2023-04-09T02:08:55;10.55;;;6.85;;
47958;SDS011;33718;50.910;-1.514;2023-04-09T02:11:04;8.82;;;6.97;;
47958;SDS011;33718;50.910;-1.514;2023-04-09T02:13:26;9.18;;;5.88;;
47958;SDS011;33718;50.910;-1.514;2023-04-09T02:15:31;10.48;;;6.28;;
47958;SDS011;33718;50.910;-1.514;2023-04-09T02:17:36;11.70;;;6.40;;
47958;SDS011;33718;50.910;-1.514;2023-04-09T02:19:40;14.52;;;7.68;;
47958;SDS011;33718;50.910;-1.514;2023-04-09T02:21:42;11.95;;;8.57;;
47958;SDS011;33718;50.910;-1.514;2023-04-09T02:23:44;14.45;;;9.70;;
47958;SDS011;33718;50.910;-1.514;2023-04-09T02:25:46;15.15;;;9.65;;
47958;SDS011;33718;50.910;-1.514;2023-04-09T02:27:47;16.42;;;11.32;;
47958;SDS011;33718;50.910;-1.514;2023-04-09T02:30:07;14.48;;;8.65;;
47958;SDS011;33718;50.910;-1.514;2023-04-09T02:32:09;14.55;;;9.57;;
47958;SDS011;33718;50.910;-1.514;2023-04-09T02:34:10;17.65;;;10.57;;
47958;SDS011;33718;50.910;-1.514;2023-04-09T02:36:14;13.52;;;8.95;;
47958;SDS011;33718;50.910;-1.514;2023-04-09T02:38:19;13.80;;;8.80;;
47958;SDS011;33718;50.910;-1.514;2023-04-09T02:40:23;15.70;;;9.85;;
47958;SDS011;33718;50.910;-1.514;2023-04-09T02:42:25;10.20;;;7.68;;
47958;SDS011;33718;50.910;-1.514;2023-04-09T02:44:26;11.77;;;9.13;;
47958;SDS011;33718;50.910;-1.514;2023-04-09T02:46:28;11.55;;;7.95;;
47958;SDS011;33718;50.910;-1.514;2023-04-09T02:48:29;18.02;;;9.05;;
47958;SDS011;33718;50.910;-1.514;2023-04-09T02:50:49;13.38;;;8.55;;
47958;SDS011;33718;50.910;-1.514;2023-04-09T02:52:51;11.05;;;7.75;;
47958;SDS011;33718;50.910;-1.514;2023-04-09T02:54:52;12.40;;;9.73;;
47958;SDS011;33718;50.910;-1.514;2023-04-09T02:56:54;19.08;;;10.30;;
47958;SDS011;33718;50.910;-1.514;2023-04-09T02:58:56;13.18;;;8.20;;
47958;SDS011;33718;50.910;-1.514;2023-04-09T03:01:00;9.88;;;8.00;;
47958;SDS011;33718;50.910;-1.514;2023-04-09T03:03:02;14.32;;;9.13;;
47958;SDS011;33718;50.910;-1.514;2023-04-09T03:05:23;14.68;;;8.75;;
47958;SDS011;33718;50.910;-1.514;2023-04-09T03:09:31;14.77;;;9.63;;
47958;SDS011;33718;50.910;-1.514;2023-04-09T03:11:32;16.40;;;9.63;;
47958;SDS011;33718;50.910;-1.514;2023-04-09T03:13:34;14.82;;;9.80;;
47958;SDS011;33718;50.910;-1.514;2023-04-09T03:15:38;19.73;;;9.57;;
47958;SDS011;33718;50.910;-1.514;2023-04-09T03:17:43;16.40;;;8.25;;
47958;SDS011;33718;50.910;-1.514;2023-04-09T03:19:47;11.20;;;8.48;;
47958;SDS011;33718;50.910;-1.514;2023-04-09T03:21:51;12.10;;;8.00;;
47958;SDS011;33718;50.910;-1.514;2023-04-09T03:23:56;10.40;;;8.23;;
47958;SDS011;33718;50.910;-1.514;2023-04-09T03:26:01;9.57;;;7.40;;
47958;SDS011;33718;50.910;-1.514;2023-04-09T03:28:05;12.45;;;7.18;;
47958;SDS011;33718;50.910;-1.514;2023-04-09T03:30:10;11.68;;;7.70;;
47958;SDS011;33718;50.910;-1.514;2023-04-09T03:32:11;12.65;;;7.78;;
47958;SDS011;33718;50.910;-1.514;2023-04-09T03:34:13;9.70;;;7.00;;
47958;SDS011;33718;50.910;-1.514;2023-04-09T03:36:33;12.38;;;7.53;;
47958;SDS011;33718;50.910;-1.514;2023-04-09T03:38:34;14.82;;;7.65;;
47958;SDS011;33718;50.910;-1.514;2023-04-09T03:40:39;11.50;;;7.38;;
47958;SDS011;33718;50.910;-1.514;2023-04-09T03:42:42;11.32;;;6.97;;
47958;SDS011;33718;50.910;-1.514;2023-04-09T03:44:44;12.48;;;7.32;;
47958;SDS011;33718;50.910;-1.514;2023-04-09T03:46:48;15.35;;;8.25;;
47958;SDS011;33718;50.910;-1.514;2023-04-09T03:48:52;10.57;;;7.63;;
47958;SDS011;33718;50.910;-1.514;2023-04-09T03:50:54;13.95;;;8.07;;
47958;SDS011;33718;50.910;-1.514;2023-04-09T03:52:56;11.18;;;7.35;;
47958;SDS011;33718;50.910;-1.514;2023-04-09T03:55:16;9.55;;;7.60;;
47958;SDS011;33718;50.910;-1.514;2023-04-09T03:57:20;11.45;;;7.95;;
47958;SDS011;33718;50.910;-1.514;2023-04-09T03:59:21;12.02;;;7.90;;
47958;SDS011;33718;50.910;-1.514;2023-04-09T04:01:41;12.00;;;7.32;;
47958;SDS011;33718;50.910;-1.514;2023-04-09T04:03:46;12.02;;;7.10;;
47958;SDS011;33718;50.910;-1.514;2023-04-09T04:05:48;9.85;;;6.68;;
47958;SDS011;33718;50.910;-1.514;2023-04-09T04:07:52;11.35;;;7.28;;
47958;SDS011;33718;50.910;-1.514;2023-04-09T04:09:54;16.65;;;8.27;;
47958;SDS011;33718;50.910;-1.514;2023-04-09T04:11:55;13.45;;;7.05;;
47958;SDS011;33718;50.910;-1.514;2023-04-09T04:13:59;13.52;;;7.55;;
47958;SDS011;33718;50.910;-1.514;2023-04-09T04:16:00;10.75;;;8.13;;
47958;SDS011;33718;50.910;-1.514;2023-04-09T04:18:02;8.85;;;6.55;;
47958;SDS011;33718;50.910;-1.514;2023-04-09T04:20:06;18.42;;;8.15;;
47958;SDS011;33718;50.910;-1.514;2023-04-09T04:22:10;11.13;;;7.55;;
47958;SDS011;33718;50.910;-1.514;2023-04-09T04:24:15;9.95;;;7.97;;
47958;SDS011;33718;50.910;-1.514;2023-04-09T04:28:20;8.93;;;7.38;;
47958;SDS011;33718;50.910;-1.514;2023-04-09T04:30:22;9.98;;;7.65;;
47958;SDS011;33718;50.910;-1.514;2023-04-09T04:32:29;10.55;;;6.88;;
47958;SDS011;33718;50.910;-1.514;2023-04-09T04:34:50;8.98;;;7.15;;
47958;SDS011;33718;50.910;-1.514;2023-04-09T04:39:14;15.45;;;6.80;;
47958;SDS011;33718;50.910;-1.514;2023-04-09T04:41:16;10.35;;;7.07;;
47958;SDS011;33718;50.910;-1.514;2023-04-09T04:43:18;9.43;;;6.47;;
47958;SDS011;33718;50.910;-1.514;2023-04-09T04:45:23;11.35;;;7.22;;
47958;SDS011;33718;50.910;-1.514;2023-04-09T04:47:30;9.85;;;7.03;;
47958;SDS011;33718;50.910;-1.514;2023-04-09T04:49:39;11.68;;;7.25;;
47958;SDS011;33718;50.910;-1.514;2023-04-09T04:51:55;10.68;;;8.30;;
47958;SDS011;33718;50.910;-1.514;2023-04-09T04:54:09;14.93;;;7.22;;
47958;SDS011;33718;50.910;-1.514;2023-04-09T04:56:22;11.85;;;7.70;;
47958;SDS011;33718;50.910;-1.514;2023-04-09T04:58:36;11.18;;;7.18;;
47958;SDS011;33718;50.910;-1.514;2023-04-09T05:00:51;13.07;;;8.73;;
47958;SDS011;33718;50.910;-1.514;2023-04-09T05:05:15;10.73;;;8.07;;
47958;SDS011;33718;50.910;-1.514;2023-04-09T05:07:24;11.00;;;7.50;;
47958;SDS011;33718;50.910;-1.514;2023-04-09T05:09:36;13.30;;;9.00;;
47958;SDS011;33718;50.910;-1.514;2023-04-09T05:11:52;10.88;;;7.85;;
47958;SDS011;33718;50.910;-1.514;2023-04-09T05:14:06;12.10;;;8.00;;
47958;SDS011;33718;50.910;-1.514;2023-04-09T05:16:20;10.68;;;7.88;;
47958;SDS011;33718;50.910;-1.514;2023-04-09T05:18:35;9.90;;;7.63;;
47958;SDS011;33718;50.910;-1.514;2023-04-09T05:20:48;10.30;;;8.05;;
47958;SDS011;33718;50.910;-1.514;2023-04-09T05:23:04;12.15;;;7.85;;
47958;SDS011;33718;50.910;-1.514;2023-04-09T05:25:19;10.05;;;7.90;;
47958;SDS011;33718;50.910;-1.514;2023-04-09T05:27:33;9.75;;;7.60;;
47958;SDS011;33718;50.910;-1.514;2023-04-09T05:29:35;12.88;;;7.57;;
47958;SDS011;33718;50.910;-1.514;2023-04-09T05:31:42;11.80;;;8.05;;
47958;SDS011;33718;50.910;-1.514;2023-04-09T05:33:46;10.02;;;8.07;;
47958;SDS011;33718;50.910;-1.514;2023-04-09T05:35:50;13.10;;;8.02;;
47958;SDS011;33718;50.910;-1.514;2023-04-09T05:37:52;11.10;;;7.57;;
47958;SDS011;33718;50.910;-1.514;2023-04-09T05:39:56;12.43;;;7.88;;
47958;SDS011;33718;50.910;-1.514;2023-04-09T05:42:01;13.13;;;7.85;;
47958;SDS011;33718;50.910;-1.514;2023-04-09T05:44:02;15.50;;;8.00;;
47958;SDS011;33718;50.910;-1.514;2023-04-09T05:46:04;14.88;;;8.25;;
47958;SDS011;33718;50.910;-1.514;2023-04-09T05:48:08;12.52;;;7.57;;
47958;SDS011;33718;50.910;-1.514;2023-04-09T05:50:13;17.50;;;9.27;;
47958;SDS011;33718;50.910;-1.514;2023-04-09T05:52:14;15.52;;;8.93;;
47958;SDS011;33718;50.910;-1.514;2023-04-09T05:54:17;14.10;;;9.45;;
47958;SDS011;33718;50.910;-1.514;2023-04-09T05:56:21;18.83;;;9.20;;
47958;SDS011;33718;50.910;-1.514;2023-04-09T05:58:29;13.05;;;8.52;;
47958;SDS011;33718;50.910;-1.514;2023-04-09T06:00:30;14.25;;;7.68;;
47958;SDS011;33718;50.910;-1.514;2023-04-09T06:02:50;12.10;;;8.38;;
47958;SDS011;33718;50.910;-1.514;2023-04-09T06:04:55;9.43;;;7.15;;
47958;SDS011;33718;50.910;-1.514;2023-04-09T06:07:15;12.88;;;7.63;;
47958;SDS011;33718;50.910;-1.514;2023-04-09T06:09:20;16.75;;;9.75;;
47958;SDS011;33718;50.910;-1.514;2023-04-09T06:11:22;14.75;;;10.13;;
47958;SDS011;33718;50.910;-1.514;2023-04-09T06:13:23;13.40;;;8.52;;
47958;SDS011;33718;50.910;-1.514;2023-04-09T06:15:25;11.73;;;8.13;;
47958;SDS011;33718;50.910;-1.514;2023-04-09T06:17:27;13.02;;;8.73;;
47958;SDS011;33718;50.910;-1.514;2023-04-09T06:19:29;17.92;;;9.13;;
47958;SDS011;33718;50.910;-1.514;2023-04-09T06:21:31;12.20;;;8.45;;
47958;SDS011;33718;50.910;-1.514;2023-04-09T06:23:36;12.43;;;8.43;;
47958;SDS011;33718;50.910;-1.514;2023-04-09T06:27:42;13.32;;;7.60;;
47958;SDS011;33718;50.910;-1.514;2023-04-09T06:29:46;12.65;;;8.65;;
47958;SDS011;33718;50.910;-1.514;2023-04-09T06:32:06;11.95;;;7.63;;
47958;SDS011;33718;50.910;-1.514;2023-04-09T06:36:11;13.70;;;9.20;;
47958;SDS011;33718;50.910;-1.514;2023-04-09T06:38:16;14.85;;;9.75;;
47958;SDS011;33718;50.910;-1.514;2023-04-09T06:40:17;15.68;;;9.55;;
47958;SDS011;33718;50.910;-1.514;2023-04-09T06:42:25;21.80;;;11.23;;
47958;SDS011;33718;50.910;-1.514;2023-04-09T06:44:30;18.25;;;11.68;;
47958;SDS011;33718;50.910;-1.514;2023-04-09T06:46:34;24.92;;;13.70;;
47958;SDS011;33718;50.910;-1.514;2023-04-09T06:48:36;29.00;;;16.80;;
47958;SDS011;33718;50.910;-1.514;2023-04-09T06:50:40;25.40;;;16.35;;
47958;SDS011;33718;50.910;-1.514;2023-04-09T06:52:45;31.42;;;16.98;;
47958;SDS011;33718;50.910;-1.514;2023-04-09T06:54:46;44.00;;;22.40;;
47958;SDS011;33718;50.910;-1.514;2023-04-09T06:56:51;36.03;;;22.00;;
47958;SDS011;33718;50.910;-1.514;2023-04-09T06:58:55;55.35;;;31.63;;
47958;SDS011;33718;50.910;-1.514;2023-04-09T07:03:01;48.50;;;27.45;;
47958;SDS011;33718;50.910;-1.514;2023-04-09T07:05:03;54.63;;;33.20;;
47958;SDS011;33718;50.910;-1.514;2023-04-09T07:07:05;68.03;;;34.97;;
47958;SDS011;33718;50.910;-1.514;2023-04-09T07:09:06;73.03;;;40.05;;
47958;SDS011;33718;50.910;-1.514;2023-04-09T07:11:08;64.03;;;36.78;;
47958;SDS011;33718;50.910;-1.514;2023-04-09T07:13:15;55.33;;;33.17;;
47958;SDS011;33718;50.910;-1.514;2023-04-09T07:15:19;64.28;;;34.10;;
47958;SDS011;33718;50.910;-1.514;2023-04-09T07:17:24;58.08;;;33.85;;
47958;SDS011;33718;50.910;-1.514;2023-04-09T07:19:28;59.97;;;33.58;;
47958;SDS011;33718;50.910;-1.514;2023-04-09T07:21:31;51.30;;;31.10;;
47958;SDS011;33718;50.910;-1.514;2023-04-09T07:23:33;53.70;;;31.40;;
47958;SDS011;33718;50.910;-1.514;2023-04-09T07:25:37;48.55;;;31.15;;
47958;SDS011;33718;50.910;-1.514;2023-04-09T07:27:39;51.75;;;32.00;;
47958;SDS011;33718;50.910;-1.514;2023-04-09T07:29:44;47.05;;;31.02;;
47958;SDS011;33718;50.910;-1.514;2023-04-09T07:31:45;43.58;;;29.58;;
47958;SDS011;33718;50.910;-1.514;2023-04-09T07:33:47;43.45;;;29.55;;
47958;SDS011;33718;50.910;-1.514;2023-04-09T07:35:51;39.55;;;29.23;;
47958;SDS011;33718;50.910;-1.514;2023-04-09T07:37:54;47.43;;;29.37;;
47958;SDS011;33718;50.910;-1.514;2023-04-09T07:40:14;42.20;;;27.95;;
47958;SDS011;33718;50.910;-1.514;2023-04-09T07:42:19;35.10;;;26.90;;
47958;SDS011;33718;50.910;-1.514;2023-04-09T07:44:23;36.65;;;27.02;;
47958;SDS011;33718;50.910;-1.514;2023-04-09T07:46:25;37.95;;;26.83;;
47958;SDS011;33718;50.910;-1.514;2023-04-09T07:48:29;33.42;;;26.63;;
47958;SDS011;33718;50.910;-1.514;2023-04-09T07:50:33;31.15;;;24.98;;
47958;SDS011;33718;50.910;-1.514;2023-04-09T07:52:38;40.33;;;27.13;;
47958;SDS011;33718;50.910;-1.514;2023-04-09T07:54:46;32.00;;;24.83;;
47958;SDS011;33718;50.910;-1.514;2023-04-09T07:56:58;36.77;;;26.40;;
47958;SDS011;33718;50.910;-1.514;2023-04-09T07:59:14;35.80;;;24.58;;
47958;SDS011;33718;50.910;-1.514;2023-04-09T08:01:27;33.17;;;25.85;;
47958;SDS011;33718;50.910;-1.514;2023-04-09T08:03:44;37.50;;;24.88;;
47958;SDS011;33718;50.910;-1.514;2023-04-09T08:05:58;38.13;;;25.55;;
47958;SDS011;33718;50.910;-1.514;2023-04-09T08:08:13;39.80;;;26.05;;
47958;SDS011;33718;50.910;-1.514;2023-04-09T08:10:41;42.22;;;26.75;;
47958;SDS011;33718;50.910;-1.514;2023-04-09T08:12:52;38.00;;;26.20;;
47958;SDS011;33718;50.910;-1.514;2023-04-09T08:15:03;46.42;;;27.73;;
47958;SDS011;33718;50.910;-1.514;2023-04-09T08:17:15;44.83;;;26.17;;
47958;SDS011;33718;50.910;-1.514;2023-04-09T08:19:26;35.15;;;22.77;;
47958;SDS011;33718;50.910;-1.514;2023-04-09T08:21:42;34.55;;;22.30;;
47958;SDS011;33718;50.910;-1.514;2023-04-09T08:24:11;35.83;;;20.45;;
47958;SDS011;33718;50.910;-1.514;2023-04-09T08:26:23;28.90;;;19.92;;
47958;SDS011;33718;50.910;-1.514;2023-04-09T08:28:37;31.35;;;21.17;;
47958;SDS011;33718;50.910;-1.514;2023-04-09T08:30:48;31.48;;;20.08;;
47958;SDS011;33718;50.910;-1.514;2023-04-09T08:32:53;28.33;;;19.83;;
47958;SDS011;33718;50.910;-1.514;2023-04-09T08:34:54;30.83;;;20.85;;
47958;SDS011;33718;50.910;-1.514;2023-04-09T08:36:59;25.75;;;17.88;;
47958;SDS011;33718;50.910;-1.514;2023-04-09T08:39:00;29.77;;;18.35;;
47958;SDS011;33718;50.910;-1.514;2023-04-09T08:41:02;26.67;;;19.35;;
47958;SDS011;33718;50.910;-1.514;2023-04-09T08:43:04;28.30;;;18.95;;
47958;SDS011;33718;50.910;-1.514;2023-04-09T08:45:10;25.25;;;17.98;;
47958;SDS011;33718;50.910;-1.514;2023-04-09T08:47:14;25.67;;;17.90;;
47958;SDS011;33718;50.910;-1.514;2023-04-09T08:49:19;25.08;;;18.20;;
47958;SDS011;33718;50.910;-1.514;2023-04-09T08:51:24;22.23;;;18.47;;
47958;SDS011;33718;50.910;-1.514;2023-04-09T08:53:45;27.00;;;19.48;;
47958;SDS011;33718;50.910;-1.514;2023-04-09T08:55:47;26.52;;;19.10;;
47958;SDS011;33718;50.910;-1.514;2023-04-09T08:57:52;25.92;;;19.10;;
47958;SDS011;33718;50.910;-1.514;2023-04-09T08:59:53;23.20;;;17.83;;
47958;SDS011;33718;50.910;-1.514;2023-04-09T09:02:07;26.70;;;17.45;;
47958;SDS011;33718;50.910;-1.514;2023-04-09T09:04:29;22.40;;;15.55;;
47958;SDS011;33718;50.910;-1.514;2023-04-09T09:06:46;23.05;;;16.70;;
47958;SDS011;33718;50.910;-1.514;2023-04-09T09:11:07;21.67;;;14.73;;
47958;SDS011;33718;50.910;-1.514;2023-04-09T09:13:20;20.48;;;15.38;;
47958;SDS011;33718;50.910;-1.514;2023-04-09T09:15:28;19.60;;;13.77;;
47958;SDS011;33718;50.910;-1.514;2023-04-09T09:17:30;21.90;;;13.80;;
47958;SDS011;33718;50.910;-1.514;2023-04-09T09:19:34;18.52;;;12.38;;
47958;SDS011;33718;50.910;-1.514;2023-04-09T09:21:36;20.60;;;12.43;;
47958;SDS011;33718;50.910;-1.514;2023-04-09T09:23:39;18.63;;;13.60;;
47958;SDS011;33718;50.910;-1.514;2023-04-09T09:25:41;17.67;;;12.85;;
47958;SDS011;33718;50.910;-1.514;2023-04-09T09:27:46;15.98;;;11.90;;
47958;SDS011;33718;50.910;-1.514;2023-04-09T09:29:47;15.57;;;11.38;;
47958;SDS011;33718;50.910;-1.514;2023-04-09T09:31:52;18.13;;;10.90;;
47958;SDS011;33718;50.910;-1.514;2023-04-09T09:33:57;20.98;;;11.35;;
47958;SDS011;33718;50.910;-1.514;2023-04-09T09:36:04;19.40;;;11.77;;
47958;SDS011;33718;50.910;-1.514;2023-04-09T09:38:05;21.38;;;12.45;;
47958;SDS011;33718;50.910;-1.514;2023-04-09T09:40:07;15.70;;;11.52;;
47958;SDS011;33718;50.910;-1.514;2023-04-09T09:42:09;22.15;;;11.75;;
47958;SDS011;33718;50.910;-1.514;2023-04-09T09:44:29;17.23;;;11.95;;
47958;SDS011;33718;50.910;-1.514;2023-04-09T09:46:35;18.02;;;10.15;;
47958;SDS011;33718;50.910;-1.514;2023-04-09T09:48:41;19.45;;;11.25;;
47958;SDS011;33718;50.910;-1.514;2023-04-09T09:50:43;17.88;;;11.20;;
47958;SDS011;33718;50.910;-1.514;2023-04-09T09:52:48;15.32;;;10.55;;
47958;SDS011;33718;50.910;-1.514;2023-04-09T09:54:51;15.38;;;9.70;;
47958;SDS011;33718;50.910;-1.514;2023-04-09T09:56:56;18.52;;;10.35;;
47958;SDS011;33718;50.910;-1.514;2023-04-09T10:01:09;13.30;;;11.75;;
47958;SDS011;33718;50.910;-1.514;2023-04-09T10:03:19;15.25;;;11.32;;
47958;SDS011;33718;50.910;-1.514;2023-04-09T10:05:22;15.35;;;11.45;;
47958;SDS011;33718;50.910;-1.514;2023-04-09T10:07:27;19.05;;;11.23;;
47958;SDS011;33718;50.910;-1.514;2023-04-09T10:09:32;16.33;;;11.02;;
47958;SDS011;33718;50.910;-1.514;2023-04-09T10:11:38;15.65;;;11.50;;
47958;SDS011;33718;50.910;-1.514;2023-04-09T10:14:01;13.32;;;11.75;;
47958;SDS011;33718;50.910;-1.514;2023-04-09T10:16:21;16.27;;;11.35;;
47958;SDS011;33718;50.910;-1.514;2023-04-09T10:18:27;13.48;;;10.18;;
47958;SDS011;33718;50.910;-1.514;2023-04-09T10:20:33;18.30;;;11.73;;
47958;SDS011;33718;50.910;-1.514;2023-04-09T10:22:36;15.90;;;11.55;;
47958;SDS011;33718;50.910;-1.514;2023-04-09T10:24:38;16.65;;;11.02;;
47958;SDS011;33718;50.910;-1.514;2023-04-09T10:26:40;13.55;;;10.57;;
47958;SDS011;33718;50.910;-1.514;2023-04-09T10:28:42;15.20;;;10.02;;
47958;SDS011;33718;50.910;-1.514;2023-04-09T10:31:03;12.35;;;9.73;;
47958;SDS011;33718;50.910;-1.514;2023-04-09T10:33:20;13.90;;;10.02;;
47958;SDS011;33718;50.910;-1.514;2023-04-09T10:35:25;14.15;;;8.98;;
47958;SDS011;33718;50.910;-1.514;2023-04-09T10:37:28;14.25;;;10.50;;
47958;SDS011;33718;50.910;-1.514;2023-04-09T10:39:32;14.18;;;10.18;;
47958;SDS011;33718;50.910;-1.514;2023-04-09T10:41:34;16.58;;;10.50;;
47958;SDS011;33718;50.910;-1.514;2023-04-09T10:43:38;14.05;;;9.23;;
47958;SDS011;33718;50.910;-1.514;2023-04-09T10:45:40;14.68;;;9.98;;
47958;SDS011;33718;50.910;-1.514;2023-04-09T10:47:48;20.77;;;11.60;;
47958;SDS011;33718;50.910;-1.514;2023-04-09T10:49:53;14.32;;;11.55;;
47958;SDS011;33718;50.910;-1.514;2023-04-09T10:56:26;14.18;;;10.68;;
47958;SDS011;33718;50.910;-1.514;2023-04-09T10:58:28;14.65;;;10.77;;
47958;SDS011;33718;50.910;-1.514;2023-04-09T11:00:50;16.38;;;10.70;;
47958;SDS011;33718;50.910;-1.514;2023-04-09T11:10:32;16.85;;;10.25;;
47958;SDS011;33718;50.910;-1.514;2023-04-09T11:12:56;18.27;;;9.30;;
47958;SDS011;33718;50.910;-1.514;2023-04-09T11:15:23;14.32;;;9.20;;
47958;SDS011;33718;50.910;-1.514;2023-04-09T11:17:40;12.05;;;8.25;;
47958;SDS011;33718;50.910;-1.514;2023-04-09T11:19:55;13.32;;;9.85;;
47958;SDS011;33718;50.910;-1.514;2023-04-09T11:22:10;17.88;;;10.15;;
47958;SDS011;33718;50.910;-1.514;2023-04-09T11:24:25;15.75;;;9.43;;
47958;SDS011;33718;50.910;-1.514;2023-04-09T11:26:38;13.60;;;9.25;;
47958;SDS011;33718;50.910;-1.514;2023-04-09T11:29:07;14.85;;;10.00;;
47958;SDS011;33718;50.910;-1.514;2023-04-09T11:31:32;14.07;;;10.05;;
47958;SDS011;33718;50.910;-1.514;2023-04-09T11:33:49;14.98;;;9.80;;
47958;SDS011;33718;50.910;-1.514;2023-04-09T11:36:09;13.43;;;9.25;;
47958;SDS011;33718;50.910;-1.514;2023-04-09T11:38:19;15.02;;;9.38;;
47958;SDS011;33718;50.910;-1.514;2023-04-09T11:40:24;12.73;;;9.50;;
47958;SDS011;33718;50.910;-1.514;2023-04-09T11:42:47;13.10;;;8.73;;
47958;SDS011;33718;50.910;-1.514;2023-04-09T11:44:48;17.23;;;9.38;;
47958;SDS011;33718;50.910;-1.514;2023-04-09T11:46:53;11.93;;;8.95;;
47958;SDS011;33718;50.910;-1.514;2023-04-09T11:49:13;11.80;;;8.05;;
47958;SDS011;33718;50.910;-1.514;2023-04-09T11:51:18;14.85;;;8.15;;
47958;SDS011;33718;50.910;-1.514;2023-04-09T11:53:22;16.73;;;9.57;;
47958;SDS011;33718;50.910;-1.514;2023-04-09T11:55:25;21.83;;;9.80;;
47958;SDS011;33718;50.910;-1.514;2023-04-09T11:59:44;14.25;;;8.65;;
47958;SDS011;33718;50.910;-1.514;2023-04-09T12:01:49;12.40;;;8.25;;
47958;SDS011;33718;50.910;-1.514;2023-04-09T12:03:52;18.08;;;9.77;;
47958;SDS011;33718;50.910;-1.514;2023-04-09T12:06:00;11.90;;;8.07;;
47958;SDS011;33718;50.910;-1.514;2023-04-09T12:08:08;18.75;;;8.85;;
47958;SDS011;33718;50.910;-1.514;2023-04-09T12:10:12;15.93;;;9.25;;
47958;SDS011;33718;50.910;-1.514;2023-04-09T12:12:17;11.35;;;8.57;;
47958;SDS011;33718;50.910;-1.514;2023-04-09T12:14:21;15.02;;;10.27;;
47958;SDS011;33718;50.910;-1.514;2023-04-09T12:16:26;14.23;;;9.63;;
47958;SDS011;33718;50.910;-1.514;2023-04-09T12:18:30;15.02;;;10.35;;
47958;SDS011;33718;50.910;-1.514;2023-04-09T12:20:35;18.17;;;11.85;;
47958;SDS011;33718;50.910;-1.514;2023-04-09T12:22:37;18.83;;;10.07;;
47958;SDS011;33718;50.910;-1.514;2023-04-09T12:24:44;15.45;;;9.68;;
47958;SDS011;33718;50.910;-1.514;2023-04-09T12:26:48;17.42;;;11.07;;
47958;SDS011;33718;50.910;-1.514;2023-04-09T12:28:49;23.35;;;10.90;;
47958;SDS011;33718;50.910;-1.514;2023-04-09T12:30:51;18.25;;;11.43;;
47958;SDS011;33718;50.910;-1.514;2023-04-09T12:32:56;17.85;;;10.00;;
47958;SDS011;33718;50.910;-1.514;2023-04-09T12:34:58;17.00;;;10.15;;
47958;SDS011;33718;50.910;-1.514;2023-04-09T12:36:59;14.73;;;9.10;;
47958;SDS011;33718;50.910;-1.514;2023-04-09T12:39:01;14.68;;;10.40;;
47958;SDS011;33718;50.910;-1.514;2023-04-09T12:41:05;19.85;;;12.98;;
47958;SDS011;33718;50.910;-1.514;2023-04-09T12:43:09;20.70;;;12.15;;
47958;SDS011;33718;50.910;-1.514;2023-04-09T12:45:30;15.13;;;11.07;;
47958;SDS011;33718;50.910;-1.514;2023-04-09T12:47:32;17.40;;;10.98;;
47958;SDS011;33718;50.910;-1.514;2023-04-09T12:49:36;14.30;;;11.88;;
47958;SDS011;33718;50.910;-1.514;2023-04-09T12:51:38;14.75;;;10.30;;
47958;SDS011;33718;50.910;-1.514;2023-04-09T12:53:42;18.52;;;11.25;;
47958;SDS011;33718;50.910;-1.514;2023-04-09T12:55:47;20.58;;;12.57;;
47958;SDS011;33718;50.910;-1.514;2023-04-09T12:58:07;15.13;;;10.85;;
47958;SDS011;33718;50.910;-1.514;2023-04-09T13:00:09;15.77;;;11.18;;
47958;SDS011;33718;50.910;-1.514;2023-04-09T13:02:14;15.55;;;11.40;;
47958;SDS011;33718;50.910;-1.514;2023-04-09T13:04:19;16.30;;;10.68;;
47958;SDS011;33718;50.910;-1.514;2023-04-09T13:06:20;19.35;;;12.15;;